Relevés horaires Bierset (Belgique)


Relevés horaires à Bierset - Lundi 25 Sept. 2023
Heure UTC1 Température [°C] Vent [km/h] Hum. [%] Pres.4 [hPa] Visi. [Km] Nébu. [octa] Préc.5 [mm] Cond.
2m. Res. Ros. Dir.2 Vit. Moy. Raf.3
23:00 14.5 14.4 11.1 SE 7.4 7.4 11.1 80 1022.7(-0.5/3h) 30 1/8 -- --
22:00 14.5 14.5 11.3 SE 5.6 7.4 11.1 81 1022.9(-0.3/3h) 30 1/8 -- --
21:00 15.4 15.4 11.5 SE 3.7 5.6 7.4 78 1023.2(0.4/3h) 30 1/8 -- --
20:00 17.3 17.3 9.9 SE 1.9 3.7 3.7 62 1023.1(0.5/3h) 30 1/8 -- --
19:00 17.5 17.5 9.9 NNO 0.0 1.9 3.7 61 1023(0.7/3h) 30 2/8 -- --
18:00 18.2 18.2 10.2 O 1.9 7.4 14.8 60 1022.7(0.3/3h) 30 3/8 0/12h
--
17:00 20.4 20.4 10.0 SSO 3.7 5.6 9.3 51 1022.3(0.0/3h) 30 3/8 -- --
16:00 21.0 21.0 10.4 SSO 3.7 3.7 9.3 51 1022(-0.3/3h) 30 2/8 -- --
15:00 21.5 21.5 10.5 SSO 3.7 7.4 14.8 50 1022.2(0.0/3h) 30 2/8 -- --
14:00 21.1 21.1 11.3 SO 3.7 5.6 11.1 54 1022.2(-0.2/3h) 30 3/8 -- --
13:00 20.8 20.8 10.6 SSO 5.6 7.4 14.8 52 1022.4(0.2/3h) 30 6/8 -- --
12:00 20.3 20.3 9.6 S 7.4 11.1 22.2 50 1022.3(-0.2/3h) 30 6/8 0/6h
--
11:00 19.1 19.1 8.5 SSO 7.4 11.1 16.7 50 1022.6(-0.1/3h) 30 7/8 -- --
10:00 18.1 18.1 8.4 S 7.4 9.3 22.2 53 1022.4(0.2/3h) 30 6/8 -- --
09:00 16.6 16.6 7.9 S 9.3 11.1 22.2 56 1022.7(0.3/3h) 30 6/8 -- --
08:00 14.8 14.5 7.4 S 9.3 9.3 13.0 61 1022.9(0.6/3h) 30 6/8 -- --
07:00 12.8 12.8 6.2 S 5.6 7.4 14.8 64 1023(0.5/3h) 30 5/8 -- --
06:00 11.8 11.2 5.9 S 7.4 9.3 16.7 67 1022.8(0.4/3h) 30 5/8 0/12h
--
05:00 12.6 12.2 5.7 SSE 7.4 9.3 16.7 63 1022.4(0.2/3h) 30 6/8 -- --
04:00 12.5 12.1 6.1 S 7.4 7.4 16.7 65 1022.4(-0.2/3h) 30 6/8 -- --
03:00 12.0 11.9 6.3 S 5.6 7.4 14.8 68 1022.3(-0.2/3h) 30 6/8 -- --
02:00 11.5 11.5 6.6 S 3.7 5.6 11.1 72 1022.3(-0.2/3h) 30 6/8 -- --
01:00 12.2 12.1 6.7 SSE 5.6 7.4 9.3 69 1022.3(-0.4/3h) 30 6/8 -- --
00:00 12.8 12.4 6.7 S 7.4 9.3 16.7 66 1022.1(-1.0/3h) 30 6/8 0/6h
0/24h
--

1 Coordinated Universal Time. Actuellement il est 11:00 locale et 09:00 UTC.

2 Le vent souffle depuis la direction indiquée vers la direction oposée.

3 Les rafales max. sont disponible 40 min après l'heure du relevé.

4 Pour les stations d'altitude (plus de 600m) le géopotentiel du niveau le plus proche de la pression obligatoire est indiqué.

5 Les stations disposant d'un diffuseur peuvent indiquer "trace". Cela signifie que des précipitations ont touchés le sol mais que la quantité est inférieure à 0.1 mm.

Récapitulatif de la journée
Température [°C] Vent [km/h] Ensoleillement4 [h] Precipitations totale5 [mm] Pression [Hpa]
Min1 Max.2 Moy.3 Max. Min Max.
11.4 21.7 7.4 22.2 0 h 0 min 0 1022.0 1023.2

1 Température minimale relevée entre 18:00 UTC la veille et 18:00 UTC le jour donné.

2 Température maximale relevée entre 06:00 UTC le jour donné et 06:00 UTC le lendemain.

3 Vent moyen de la journée basé sur les relevés horaires.

4 Ensoleillement en heures relevé entre 06:00 UTC la veille et 06:00 UTC le jour donné.

5 Précipitations totales tombées entre 06:00 UTC la jour donné et 06:00 UTC le lendemain.

Graphiques horaires